Time;durP1;ratioP1;P1;durP2;ratioP2;P2;SDS_P1;SDS_P2;PMS_P1;PMS_P2;Temp;Humidity;BMP_temperature;BMP_pressure;BME280_temperature;BME280_humidity;BME280_pressure;Samples;Min_cycle;Max_cycle;Signal;HPM_P1;HPM_P2
2021/08/19 00:00:35;;;;;;;10.20;9.20;;;19.40;99.90;;;;;;2071706;28;20032;-69
2021/08/19 00:01:35;;;;;;;10.25;9.15;;;19.40;99.90;;;;;;2071207;28;20033;-69
2021/08/19 00:02:36;;;;;;;11.93;9.60;;;19.50;99.90;;;;;;2071454;28;20022;-69
2021/08/19 00:03:37;;;;;;;11.18;9.45;;;19.40;99.90;;;;;;2071088;28;20245;-69
2021/08/19 00:04:38;;;;;;;11.57;9.85;;;19.40;99.90;;;;;;2071837;28;20038;-69
2021/08/19 00:05:38;;;;;;;13.20;10.02;;;19.50;99.90;;;;;;2073543;28;20030;-69
2021/08/19 00:06:39;;;;;;;11.20;9.73;;;19.40;99.90;;;;;;2071499;28;20371;-69
2021/08/19 00:07:40;;;;;;;11.93;9.25;;;19.50;99.90;;;;;;2071397;28;20023;-69
2021/08/19 00:08:41;;;;;;;13.35;10.85;;;19.50;99.90;;;;;;2071784;28;20034;-69
2021/08/19 00:09:42;;;;;;;10.70;9.70;;;19.50;99.90;;;;;;2071339;28;20022;-69
2021/08/19 00:10:42;;;;;;;11.00;8.98;;;19.50;99.90;;;;;;2071717;28;20030;-69
2021/08/19 00:11:43;;;;;;;11.43;10.18;;;19.50;99.90;;;;;;2071588;28;20030;-69
2021/08/19 00:12:44;;;;;;;12.20;10.63;;;19.50;99.90;;;;;;2070867;28;20028;-69
2021/08/19 00:13:44;;;;;;;12.05;10.65;;;19.50;99.90;;;;;;2071129;28;20018;-69
2021/08/19 00:14:45;;;;;;;11.65;10.40;;;19.50;99.90;;;;;;2071514;28;20367;-69
2021/08/19 00:15:45;;;;;;;12.52;10.25;;;19.50;99.90;;;;;;2071320;28;20034;-69
2021/08/19 00:16:46;;;;;;;12.10;10.80;;;19.50;99.90;;;;;;2071776;28;20489;-69
2021/08/19 00:17:46;;;;;;;11.88;10.63;;;19.50;99.90;;;;;;2071456;28;20080;-69
2021/08/19 00:18:47;;;;;;;12.18;10.98;;;19.50;99.90;;;;;;2071619;28;20057;-69
2021/08/19 00:19:47;;;;;;;12.90;11.55;;;19.50;99.90;;;;;;2071304;28;20075;-69
2021/08/19 00:20:48;;;;;;;12.32;11.07;;;19.50;99.90;;;;;;2071193;28;20295;-69
2021/08/19 00:21:49;;;;;;;12.82;11.50;;;19.50;99.90;;;;;;2072586;28;20021;-69
2021/08/19 00:22:49;;;;;;;12.90;11.50;;;19.50;99.90;;;;;;2070993;28;20478;-69
2021/08/19 00:23:50;;;;;;;14.32;12.82;;;19.50;99.90;;;;;;2071768;28;20041;-69
2021/08/19 00:24:51;;;;;;;14.75;12.20;;;19.50;99.90;;;;;;2071354;28;20029;-69
2021/08/19 00:25:51;;;;;;;13.63;12.32;;;19.50;99.90;;;;;;2071151;28;20017;-69
2021/08/19 00:26:52;;;;;;;14.32;12.85;;;19.50;99.90;;;;;;2071598;28;20095;-69
2021/08/19 00:27:53;;;;;;;16.13;14.32;;;19.50;99.90;;;;;;2071254;28;20374;-69
2021/08/19 00:28:53;;;;;;;17.02;13.73;;;19.50;99.90;;;;;;2071393;28;20022;-69
2021/08/19 00:29:54;;;;;;;15.80;13.85;;;19.50;99.90;;;;;;2071485;28;20025;-69
2021/08/19 00:30:54;;;;;;;17.35;13.52;;;19.50;99.90;;;;;;2071189;28;20028;-69
2021/08/19 00:31:55;;;;;;;15.05;13.55;;;19.40;99.90;;;;;;2071640;28;20034;-69
2021/08/19 00:32:55;;;;;;;15.30;13.75;;;19.40;99.90;;;;;;2070837;28;20382;-69
2021/08/19 00:33:56;;;;;;;15.57;14.02;;;19.40;99.90;;;;;;2071537;28;20025;-69
2021/08/19 00:34:57;;;;;;;15.68;14.18;;;19.40;99.90;;;;;;2071040;28;20029;-69
2021/08/19 00:35:57;;;;;;;15.27;13.77;;;19.40;99.90;;;;;;2071341;28;20126;-69
2021/08/19 00:36:58;;;;;;;18.38;14.43;;;19.40;99.90;;;;;;2071396;28;20022;-69
2021/08/19 00:37:58;;;;;;;16.05;14.50;;;19.40;99.90;;;;;;2073777;28;20064;-69
2021/08/19 00:39:00;;;;;;;16.77;15.02;;;19.40;99.90;;;;;;2071319;28;20402;-69
2021/08/19 00:40:03;;;;;;;17.95;16.08;;;19.40;99.90;;;;;;2071480;28;20108;-69
2021/08/19 00:41:05;;;;;;;16.60;14.93;;;19.40;99.90;;;;;;2063412;28;20601;-69
2021/08/19 00:42:07;;;;;;;15.90;14.38;;;19.50;99.90;;;;;;2066570;28;20029;-69
2021/08/19 00:43:08;;;;;;;16.95;15.20;;;19.40;99.90;;;;;;2071088;28;20028;-69
2021/08/19 00:44:08;;;;;;;16.50;14.80;;;19.40;99.90;;;;;;2071496;28;20026;-69
2021/08/19 00:45:09;;;;;;;17.35;14.98;;;19.40;99.90;;;;;;2071253;28;20062;-69
2021/08/19 00:46:30;;;;;;;16.73;15.02;;;19.40;99.90;;;;;;2071296;28;20087;-70
2021/08/19 00:47:31;;;;;;;16.55;14.75;;;19.40;99.90;;;;;;2071206;28;20050;-70
2021/08/19 00:48:31;;;;;;;17.20;15.50;;;19.40;99.90;;;;;;2071279;28;20026;-70
2021/08/19 00:49:32;;;;;;;18.08;16.17;;;19.40;99.90;;;;;;2071183;28;20501;-69
2021/08/19 00:50:33;;;;;;;17.33;15.32;;;19.40;99.90;;;;;;2071482;28;20030;-69
2021/08/19 00:51:40;;;;;;;18.38;15.35;;;19.40;99.90;;;;;;2070949;28;20463;-70
2021/08/19 00:52:41;;;;;;;17.20;15.45;;;19.40;99.90;;;;;;2071126;28;20021;-69
2021/08/19 00:53:44;;;;;;;17.23;15.27;;;19.40;99.90;;;;;;2072506;28;20865;-69
2021/08/19 00:54:44;;;;;;;16.65;14.95;;;19.40;99.90;;;;;;2071629;28;20040;-69
2021/08/19 00:55:45;;;;;;;19.05;17.17;;;19.40;99.90;;;;;;2071210;28;20030;-69
2021/08/19 00:56:46;;;;;;;19.63;17.25;;;19.40;99.90;;;;;;2070591;28;20374;-69
2021/08/19 00:57:47;;;;;;;18.02;16.13;;;19.40;99.90;;;;;;2070518;28;20108;-70
2021/08/19 00:58:48;;;;;;;18.33;16.05;;;19.40;99.90;;;;;;2070696;28;20421;-69
2021/08/19 00:59:52;;;;;;;17.50;15.75;;;19.40;99.90;;;;;;2071310;28;20029;-69
2021/08/19 01:00:53;;;;;;;18.70;16.95;;;19.40;99.90;;;;;;2071690;28;20026;-69
2021/08/19 01:02:00;;;;;;;17.80;16.05;;;19.40;99.90;;;;;;2071161;28;20030;-69
2021/08/19 01:03:01;;;;;;;18.00;16.23;;;19.40;99.90;;;;;;2071061;28;20030;-69
2021/08/19 01:04:04;;;;;;;19.20;17.20;;;19.40;99.90;;;;;;2070991;28;20493;-69
2021/08/19 01:05:06;;;;;;;19.63;17.52;;;19.40;99.90;;;;;;2071253;28;20029;-69
2021/08/19 01:06:06;;;;;;;17.50;15.90;;;19.40;99.90;;;;;;2071253;28;20029;-69
2021/08/19 01:07:08;;;;;;;17.70;15.75;;;19.30;99.90;;;;;;2071443;28;20033;-69
2021/08/19 01:08:09;;;;;;;18.83;17.05;;;19.30;99.90;;;;;;2071192;28;20025;-69
2021/08/19 01:09:10;;;;;;;18.17;16.33;;;19.30;99.90;;;;;;2072048;28;20032;-69
2021/08/19 01:10:11;;;;;;;18.13;16.08;;;19.40;99.90;;;;;;2071438;28;20109;-70
2021/08/19 01:11:12;;;;;;;16.85;15.35;;;19.30;99.90;;;;;;2071364;28;20536;-69
2021/08/19 01:12:13;;;;;;;16.90;15.20;;;19.30;99.90;;;;;;2071164;28;20022;-70
2021/08/19 01:13:14;;;;;;;18.65;16.88;;;19.30;99.90;;;;;;2071044;28;20927;-69
2021/08/19 01:14:15;;;;;;;19.38;17.45;;;19.30;99.90;;;;;;2071420;28;20417;-69
2021/08/19 01:15:15;;;;;;;19.60;17.10;;;19.30;99.90;;;;;;2071273;28;20045;-69
2021/08/19 01:16:19;;;;;;;18.92;17.20;;;19.30;99.90;;;;;;2070788;28;20045;-69
2021/08/19 01:17:20;;;;;;;18.10;16.40;;;19.40;99.90;;;;;;2071419;28;20030;-70
2021/08/19 01:18:20;;;;;;;18.15;16.45;;;19.40;99.90;;;;;;2071032;28;20022;-69
2021/08/19 01:19:22;;;;;;;18.50;16.70;;;19.40;99.90;;;;;;2071630;28;20034;-70
2021/08/19 01:20:34;;;;;;;19.67;17.10;;;19.40;99.90;;;;;;2071427;28;20025;-70
2021/08/19 01:21:35;;;;;;;17.67;16.00;;;19.40;99.90;;;;;;2071058;28;20034;-70
2021/08/19 01:22:35;;;;;;;17.90;16.30;;;19.40;99.90;;;;;;2070925;28;20033;-70
2021/08/19 01:23:37;;;;;;;18.70;16.80;;;19.40;99.90;;;;;;2071359;28;20033;-70
2021/08/19 01:24:38;;;;;;;18.70;16.83;;;19.40;99.90;;;;;;2071333;28;20506;-69
2021/08/19 01:25:38;;;;;;;18.98;17.20;;;19.40;99.90;;;;;;2072299;28;20351;-70
2021/08/19 01:26:40;;;;;;;17.75;16.00;;;19.40;99.90;;;;;;2070646;28;20034;-70
2021/08/19 01:27:40;;;;;;;19.42;17.17;;;19.40;99.90;;;;;;2069097;28;20021;-70
2021/08/19 01:28:42;;;;;;;18.77;16.88;;;19.40;99.90;;;;;;2072599;28;20030;-69
2021/08/19 01:29:44;;;;;;;19.15;16.98;;;19.40;99.90;;;;;;2072854;28;20018;-70
2021/08/19 01:30:44;;;;;;;18.55;16.77;;;19.40;99.90;;;;;;2072593;28;20088;-70
2021/08/19 01:32:03;;;;;;;19.70;17.27;;;19.40;99.90;;;;;;2072730;28;20105;-70
2021/08/19 01:33:04;;;;;;;18.33;15.77;;;19.40;99.90;;;;;;2063696;28;20038;-69
2021/08/19 01:34:05;;;;;;;19.05;17.15;;;19.40;99.90;;;;;;2066836;28;20042;-70
2021/08/19 01:35:05;;;;;;;18.58;16.35;;;19.30;99.90;;;;;;2064889;28;20033;-70
2021/08/19 01:36:06;;;;;;;17.42;15.63;;;19.40;99.90;;;;;;2071412;28;20030;-70
2021/08/19 01:37:07;;;;;;;18.52;15.90;;;19.30;99.90;;;;;;2072523;28;20024;-70
2021/08/19 01:38:08;;;;;;;18.45;16.75;;;19.40;99.90;;;;;;2072753;28;20033;-70
2021/08/19 01:39:08;;;;;;;19.23;17.23;;;19.40;99.90;;;;;;2071960;28;20025;-70
2021/08/19 01:40:09;;;;;;;22.33;17.67;;;19.40;99.90;;;;;;2072130;28;20366;-70
2021/08/19 01:41:10;;;;;;;19.67;17.60;;;19.40;99.90;;;;;;2073358;28;20022;-70
2021/08/19 01:42:11;;;;;;;18.65;16.75;;;19.40;99.90;;;;;;2076395;28;20109;-70
2021/08/19 01:43:11;;;;;;;19.50;17.48;;;19.40;99.90;;;;;;2072398;28;20028;-70
2021/08/19 01:44:12;;;;;;;20.90;18.48;;;19.40;99.90;;;;;;2072425;28;20409;-70
2021/08/19 01:45:18;;;;;;;18.90;16.95;;;19.40;99.90;;;;;;2072019;28;20022;-70
2021/08/19 01:46:20;;;;;;;18.63;16.75;;;19.40;99.90;;;;;;2073038;28;20493;-70
2021/08/19 01:47:22;;;;;;;18.52;16.55;;;19.30;99.90;;;;;;2072435;28;20117;-70
2021/08/19 01:48:22;;;;;;;18.73;16.88;;;19.30;99.90;;;;;;2072815;28;20014;-70
2021/08/19 01:49:25;;;;;;;19.58;17.40;;;19.30;99.90;;;;;;2072658;28;20053;-70
2021/08/19 01:50:25;;;;;;;18.88;16.98;;;19.30;99.90;;;;;;2075435;28;20466;-70
2021/08/19 01:51:26;;;;;;;19.95;17.42;;;19.30;99.90;;;;;;2072056;28;20461;-70
2021/08/19 01:52:27;;;;;;;20.88;16.88;;;19.40;99.90;;;;;;2072671;28;20093;-70
2021/08/19 01:53:27;;;;;;;19.75;17.75;;;19.40;99.90;;;;;;2071895;28;20022;-70
2021/08/19 01:54:28;;;;;;;18.45;16.00;;;19.40;99.90;;;;;;2072803;28;20835;-70
2021/08/19 01:55:28;;;;;;;18.35;16.58;;;19.40;99.90;;;;;;2072105;28;20112;-70
2021/08/19 01:56:29;;;;;;;19.70;17.63;;;19.40;99.90;;;;;;2072243;28;20478;-70
2021/08/19 01:57:29;;;;;;;19.80;17.75;;;19.40;99.90;;;;;;2072614;28;20083;-70
2021/08/19 01:58:30;;;;;;;19.92;17.85;;;19.40;99.90;;;;;;2072549;28;20076;-70
2021/08/19 01:59:31;;;;;;;19.52;17.42;;;19.40;99.90;;;;;;2072551;28;20083;-70
2021/08/19 02:00:31;;;;;;;19.25;17.23;;;19.40;99.90;;;;;;2072624;28;20030;-70
2021/08/19 02:01:32;;;;;;;19.80;17.80;;;19.40;99.90;;;;;;2072196;28;20029;-69
2021/08/19 02:02:33;;;;;;;19.77;16.65;;;19.40;99.90;;;;;;2072423;28;20504;-70
2021/08/19 02:03:33;;;;;;;19.52;17.65;;;19.30;99.90;;;;;;2072557;28;20036;-70
2021/08/19 02:04:34;;;;;;;20.13;18.15;;;19.40;99.90;;;;;;2072432;28;20113;-70
2021/08/19 02:05:40;;;;;;;20.77;17.90;;;19.40;99.90;;;;;;2072577;28;20030;-70
2021/08/19 02:06:40;;;;;;;19.40;17.45;;;19.30;99.90;;;;;;2072375;28;20046;-70
2021/08/19 02:07:41;;;;;;;20.50;18.40;;;19.30;99.90;;;;;;2072355;28;20528;-70
2021/08/19 02:08:41;;;;;;;20.73;18.60;;;19.30;99.90;;;;;;2073552;28;20045;-70
2021/08/19 02:09:42;;;;;;;19.88;17.40;;;19.40;99.90;;;;;;2076542;28;20045;-69
2021/08/19 02:10:44;;;;;;;18.92;16.92;;;19.30;99.90;;;;;;2072293;28;20026;-69
2021/08/19 02:11:44;;;;;;;22.85;17.60;;;19.40;99.90;;;;;;2071930;28;20049;-69
2021/08/19 02:12:45;;;;;;;21.42;18.35;;;19.40;99.90;;;;;;2072306;28;20026;-70
2021/08/19 02:13:45;;;;;;;18.50;16.35;;;19.40;99.90;;;;;;2072046;28;20026;-70
2021/08/19 02:14:46;;;;;;;20.67;18.45;;;19.40;99.90;;;;;;2072374;28;20041;-69
2021/08/19 02:15:46;;;;;;;19.63;17.58;;;19.40;99.90;;;;;;2072070;28;20042;-70
2021/08/19 02:16:47;;;;;;;19.60;17.20;;;19.30;99.90;;;;;;2072600;28;20030;-70
2021/08/19 02:17:47;;;;;;;19.52;17.45;;;19.30;99.90;;;;;;2072232;28;20038;-70
2021/08/19 02:18:48;;;;;;;18.88;16.98;;;19.30;99.90;;;;;;2072513;28;20029;-70
2021/08/19 02:19:48;;;;;;;19.27;17.40;;;19.30;99.90;;;;;;2072590;28;20034;-70
2021/08/19 02:20:49;;;;;;;19.67;17.58;;;19.30;99.90;;;;;;2072424;28;20093;-70
2021/08/19 02:21:50;;;;;;;21.08;18.00;;;19.30;99.90;;;;;;2071870;28;20054;-70
2021/08/19 02:22:50;;;;;;;20.13;18.13;;;19.30;99.90;;;;;;2075734;28;20405;-69
2021/08/19 02:23:51;;;;;;;18.98;17.15;;;19.30;99.90;;;;;;2079962;28;20025;-69
2021/08/19 02:24:52;;;;;;;20.23;16.92;;;19.30;99.90;;;;;;2072380;28;20621;-70
2021/08/19 02:25:53;;;;;;;19.02;17.05;;;19.30;99.90;;;;;;2072266;28;20034;-69
2021/08/19 02:26:53;;;;;;;19.70;17.67;;;19.30;99.90;;;;;;2072544;28;20014;-70
2021/08/19 02:27:54;;;;;;;19.08;17.08;;;19.30;99.90;;;;;;2072303;28;20046;-69
2021/08/19 02:28:55;;;;;;;20.58;16.48;;;19.30;99.90;;;;;;2072125;28;20390;-69
2021/08/19 02:29:56;;;;;;;18.90;16.63;;;19.30;99.90;;;;;;2072397;28;20026;-70
2021/08/19 02:30:56;;;;;;;18.02;16.15;;;19.30;99.90;;;;;;2076752;28;20017;-70
2021/08/19 02:31:57;;;;;;;20.15;17.75;;;19.30;99.90;;;;;;2072493;28;20466;-70
2021/08/19 02:32:57;;;;;;;20.48;17.35;;;19.30;99.90;;;;;;2072450;28;20026;-70
2021/08/19 02:33:58;;;;;;;18.23;16.25;;;19.30;99.90;;;;;;2072616;28;20030;-70
2021/08/19 02:34:59;;;;;;;17.75;15.98;;;19.30;99.90;;;;;;2072536;28;20100;-70
2021/08/19 02:35:59;;;;;;;22.27;18.17;;;19.30;99.90;;;;;;2072197;28;20033;-70
2021/08/19 02:37:00;;;;;;;19.42;17.42;;;19.30;99.90;;;;;;2071353;28;20474;-70
2021/08/19 02:38:06;;;;;;;22.00;16.83;;;19.30;99.90;;;;;;2072616;28;20029;-69
2021/08/19 02:39:06;;;;;;;18.33;16.13;;;19.40;99.90;;;;;;2072407;28;20101;-70
2021/08/19 02:40:07;;;;;;;16.88;15.15;;;19.30;99.90;;;;;;2072332;28;20036;-70
2021/08/19 02:41:08;;;;;;;22.80;16.85;;;19.30;99.90;;;;;;2072202;28;20025;-69
2021/08/19 02:42:08;;;;;;;19.08;17.17;;;19.30;99.90;;;;;;2072328;28;20073;-70
2021/08/19 02:43:09;;;;;;;16.20;14.40;;;19.30;99.90;;;;;;2071680;28;20056;-69
2021/08/19 02:44:10;;;;;;;18.50;16.42;;;19.30;99.90;;;;;;2072097;28;20489;-69
2021/08/19 02:45:10;;;;;;;17.15;15.35;;;19.40;99.90;;;;;;2071890;28;21221;-70
2021/08/19 02:46:12;;;;;;;19.27;16.92;;;19.40;99.90;;;;;;2072268;28;20028;-69
2021/08/19 02:47:13;;;;;;;20.95;16.70;;;19.40;99.90;;;;;;2072024;28;20045;-69
2021/08/19 02:48:13;;;;;;;19.75;17.17;;;19.40;99.90;;;;;;2072426;28;20462;-70
2021/08/19 02:49:14;;;;;;;20.23;17.60;;;19.40;99.90;;;;;;2072370;28;20485;-69
2021/08/19 02:50:15;;;;;;;19.13;16.10;;;19.40;99.90;;;;;;2072418;28;20026;-69
2021/08/19 02:51:16;;;;;;;19.33;16.65;;;19.40;99.90;;;;;;2072136;28;20045;-69
2021/08/19 02:52:16;;;;;;;18.63;16.75;;;19.40;99.90;;;;;;2071948;28;20018;-70
2021/08/19 02:53:17;;;;;;;18.95;17.00;;;19.40;99.90;;;;;;2071567;28;20018;-69
2021/08/19 02:54:17;;;;;;;16.75;15.00;;;19.40;99.90;;;;;;2066383;28;20588;-69
2021/08/19 02:55:18;;;;;;;18.35;16.52;;;19.40;99.90;;;;;;2069667;28;20026;-69
2021/08/19 02:56:18;;;;;;;18.30;16.15;;;19.40;99.90;;;;;;2069028;28;20044;-69
2021/08/19 02:57:19;;;;;;;20.55;16.52;;;19.40;99.90;;;;;;2072158;28;20061;-69
2021/08/19 02:58:19;;;;;;;18.83;16.88;;;19.40;99.90;;;;;;2072242;28;20022;-69
2021/08/19 02:59:20;;;;;;;18.08;16.27;;;19.40;99.90;;;;;;2072216;28;20553;-69
2021/08/19 03:00:21;;;;;;;21.55;15.73;;;19.40;99.90;;;;;;2072136;28;20026;-69
2021/08/19 03:01:21;;;;;;;16.67;15.10;;;19.40;99.90;;;;;;2072318;28;20505;-69
2021/08/19 03:02:22;;;;;;;18.55;16.58;;;19.40;99.90;;;;;;2071963;28;20394;-69
2021/08/19 03:03:22;;;;;;;18.83;16.83;;;19.40;99.90;;;;;;2071726;28;20032;-69
2021/08/19 03:04:23;;;;;;;18.88;16.98;;;19.40;99.90;;;;;;2071873;28;20034;-69
2021/08/19 03:05:23;;;;;;;22.23;16.77;;;19.40;99.90;;;;;;2072441;28;20489;-69
2021/08/19 03:06:24;;;;;;;19.65;15.82;;;19.40;99.90;;;;;;2072237;28;20109;-69
2021/08/19 03:07:25;;;;;;;16.02;14.50;;;19.40;99.90;;;;;;2071931;28;20030;-69
2021/08/19 03:08:25;;;;;;;17.75;15.95;;;19.30;99.90;;;;;;2071876;28;20026;-70
2021/08/19 03:09:26;;;;;;;17.73;15.93;;;19.40;99.90;;;;;;2072211;28;20040;-69
2021/08/19 03:10:26;;;;;;;18.58;16.58;;;19.40;99.90;;;;;;2071947;28;20040;-70
2021/08/19 03:11:27;;;;;;;16.52;14.82;;;19.40;99.90;;;;;;2072087;28;20349;-69
2021/08/19 03:12:27;;;;;;;16.30;14.55;;;19.40;99.90;;;;;;2071999;28;20033;-69
2021/08/19 03:13:28;;;;;;;18.40;16.20;;;19.40;99.90;;;;;;2071715;28;20106;-69
2021/08/19 03:14:29;;;;;;;18.15;15.50;;;19.40;99.90;;;;;;2071741;28;20032;-70
2021/08/19 03:15:29;;;;;;;17.23;15.38;;;19.40;99.90;;;;;;2072136;28;20045;-69
2021/08/19 03:16:30;;;;;;;18.90;16.02;;;19.40;99.90;;;;;;2071906;28;20099;-69
2021/08/19 03:17:30;;;;;;;17.05;15.35;;;19.40;99.90;;;;;;2072087;28;20033;-69
2021/08/19 03:18:31;;;;;;;18.50;15.40;;;19.40;99.90;;;;;;2071829;28;20533;-69
2021/08/19 03:19:32;;;;;;;15.20;13.70;;;19.40;99.90;;;;;;2072145;28;20042;-69
2021/08/19 03:20:33;;;;;;;18.65;13.85;;;19.40;99.90;;;;;;2071613;28;20029;-70
2021/08/19 03:21:35;;;;;;;17.88;15.13;;;19.40;99.90;;;;;;2071222;28;20081;-70
2021/08/19 03:22:36;;;;;;;17.65;15.57;;;19.40;99.90;;;;;;2066400;28;20434;-70
2021/08/19 03:23:37;;;;;;;16.85;15.05;;;19.40;99.90;;;;;;2071889;28;20025;-70
2021/08/19 03:24:37;;;;;;;19.25;16.45;;;19.40;99.90;;;;;;2071846;28;20034;-69
2021/08/19 03:25:38;;;;;;;18.20;15.27;;;19.40;99.90;;;;;;2071215;28;20167;-69
2021/08/19 03:26:39;;;;;;;18.35;15.68;;;19.30;99.90;;;;;;2075404;28;20036;-69
2021/08/19 03:27:39;;;;;;;19.20;16.30;;;19.40;99.90;;;;;;2071818;28;20748;-69
2021/08/19 03:28:41;;;;;;;16.95;15.10;;;19.30;99.90;;;;;;2071653;28;20413;-70
2021/08/19 03:29:41;;;;;;;16.92;15.20;;;19.30;99.90;;;;;;2071728;28;20029;-69
2021/08/19 03:30:42;;;;;;;19.67;14.82;;;19.30;99.90;;;;;;2071871;28;20034;-69
2021/08/19 03:31:43;;;;;;;19.30;15.35;;;19.30;99.90;;;;;;2071971;28;20053;-69
2021/08/19 03:32:43;;;;;;;15.15;13.52;;;19.30;99.90;;;;;;2071639;28;20025;-69
2021/08/19 03:33:46;;;;;;;17.45;13.93;;;19.30;99.90;;;;;;2071802;28;20104;-69
2021/08/19 03:34:46;;;;;;;17.08;14.90;;;19.30;99.90;;;;;;2072269;28;21106;-69
2021/08/19 03:35:47;;;;;;;16.27;14.65;;;19.30;99.90;;;;;;2070383;28;20037;-69
2021/08/19 03:36:48;;;;;;;15.75;14.25;;;19.30;99.90;;;;;;2071430;28;20057;-70
2021/08/19 03:37:48;;;;;;;16.55;14.02;;;19.30;99.90;;;;;;2071421;28;20033;-70
2021/08/19 03:38:49;;;;;;;15.02;13.32;;;19.30;99.90;;;;;;2071842;28;20069;-70
2021/08/19 03:39:50;;;;;;;14.90;12.90;;;19.30;99.90;;;;;;2072227;28;20030;-70
2021/08/19 03:40:50;;;;;;;13.77;12.48;;;19.30;99.90;;;;;;2074321;28;20033;-69
2021/08/19 03:41:50;;;;;;;17.30;14.10;;;19.30;99.90;;;;;;2071455;28;20032;-70
2021/08/19 03:42:51;;;;;;;15.13;12.18;;;19.30;99.90;;;;;;2070710;28;20502;-69
2021/08/19 03:43:52;;;;;;;13.73;12.00;;;19.30;99.90;;;;;;2071032;28;20022;-70
2021/08/19 03:44:52;;;;;;;16.45;12.27;;;19.20;99.90;;;;;;2072153;28;20026;-70
2021/08/19 03:45:53;;;;;;;15.18;12.80;;;19.20;99.90;;;;;;2072107;28;20026;-69
2021/08/19 03:46:53;;;;;;;13.82;12.38;;;19.20;99.90;;;;;;2071914;28;20108;-69
2021/08/19 03:47:54;;;;;;;13.48;12.07;;;19.20;99.90;;;;;;2070977;28;20029;-70
2021/08/19 03:48:56;;;;;;;14.18;11.90;;;19.20;99.90;;;;;;2071734;28;20458;-69
2021/08/19 03:49:56;;;;;;;12.73;10.82;;;19.20;99.90;;;;;;2071989;28;20108;-69
2021/08/19 03:50:58;;;;;;;13.77;12.15;;;19.20;99.90;;;;;;2072222;28;20042;-69
2021/08/19 03:51:58;;;;;;;14.88;11.48;;;19.20;99.90;;;;;;2071566;28;20462;-69
2021/08/19 03:52:59;;;;;;;13.73;11.75;;;19.20;99.90;;;;;;2071608;28;20381;-69
2021/08/19 03:53:59;;;;;;;12.43;11.23;;;19.20;99.90;;;;;;2075310;28;20025;-70
2021/08/19 03:55:00;;;;;;;12.68;11.27;;;19.20;99.90;;;;;;2076768;28;20097;-69
2021/08/19 03:56:00;;;;;;;11.95;10.90;;;19.10;99.90;;;;;;2071554;28;20519;-69
2021/08/19 03:57:01;;;;;;;12.73;11.40;;;19.20;99.90;;;;;;2071774;28;20107;-69
2021/08/19 03:58:02;;;;;;;13.75;11.80;;;19.10;99.90;;;;;;2071941;28;20518;-69
2021/08/19 03:59:03;;;;;;;15.43;10.82;;;19.10;99.90;;;;;;2071376;28;20572;-70
2021/08/19 04:00:05;;;;;;;12.65;11.10;;;19.10;99.90;;;;;;2070868;28;20381;-69
2021/08/19 04:01:06;;;;;;;12.20;10.75;;;19.10;99.90;;;;;;2071861;28;20018;-70
2021/08/19 04:02:07;;;;;;;14.10;10.57;;;19.10;99.90;;;;;;2071512;28;20053;-69
2021/08/19 04:03:07;;;;;;;11.93;10.32;;;19.10;99.90;;;;;;2071365;28;20022;-69
2021/08/19 04:04:08;;;;;;;11.45;10.32;;;19.10;99.90;;;;;;2071483;28;20531;-70
2021/08/19 04:05:09;;;;;;;11.73;10.57;;;19.10;99.90;;;;;;2071881;28;20025;-69
2021/08/19 04:06:09;;;;;;;10.80;9.75;;;19.10;99.90;;;;;;2071597;28;20461;-69
2021/08/19 04:07:10;;;;;;;10.68;9.73;;;19.10;99.90;;;;;;2071862;28;20096;-70
2021/08/19 04:08:11;;;;;;;11.48;10.20;;;19.10;99.90;;;;;;2074412;28;20076;-69
2021/08/19 04:09:11;;;;;;;12.77;10.57;;;19.10;99.90;;;;;;2071754;28;20103;-69
2021/08/19 04:10:12;;;;;;;10.45;9.48;;;19.10;99.90;;;;;;2070846;28;20018;-70
2021/08/19 04:11:13;;;;;;;11.38;9.50;;;19.10;99.90;;;;;;2071002;28;20026;-70
2021/08/19 04:12:13;;;;;;;11.10;10.10;;;19.10;99.90;;;;;;2071771;28;20029;-69
2021/08/19 04:13:14;;;;;;;11.43;9.07;;;19.10;99.90;;;;;;2070772;28;20088;-69
2021/08/19 04:14:15;;;;;;;10.77;9.77;;;19.10;99.90;;;;;;2071867;28;20026;-69
2021/08/19 04:15:15;;;;;;;11.70;10.60;;;19.10;99.90;;;;;;2071577;28;20028;-69
2021/08/19 04:16:16;;;;;;;10.00;9.00;;;19.10;99.90;;;;;;2071823;28;20049;-69
2021/08/19 04:17:17;;;;;;;10.23;9.18;;;19.10;99.90;;;;;;2071584;28;20072;-69
2021/08/19 04:18:19;;;;;;;14.07;9.60;;;19.10;99.90;;;;;;2071533;28;20112;-69
2021/08/19 04:19:19;;;;;;;10.20;9.20;;;19.10;99.90;;;;;;2071474;28;20034;-69
2021/08/19 04:20:21;;;;;;;10.55;9.55;;;19.10;99.90;;;;;;2071842;28;20104;-69
2021/08/19 04:21:21;;;;;;;9.98;8.88;;;19.10;99.90;;;;;;2074295;28;20657;-70
2021/08/19 04:22:22;;;;;;;10.90;9.90;;;19.10;99.90;;;;;;2078880;28;20029;-69
2021/08/19 04:23:22;;;;;;;10.15;9.05;;;19.10;99.90;;;;;;2071107;28;20080;-70
2021/08/19 04:24:23;;;;;;;10.80;9.85;;;19.10;99.90;;;;;;2071493;28;20050;-70
2021/08/19 04:25:23;;;;;;;10.85;9.48;;;19.10;99.90;;;;;;2071394;28;20037;-70
2021/08/19 04:26:26;;;;;;;9.77;8.77;;;19.10;99.90;;;;;;2071761;28;20758;-69
2021/08/19 04:27:26;;;;;;;9.57;8.65;;;19.10;99.90;;;;;;2071552;28;20257;-70
2021/08/19 04:28:27;;;;;;;9.57;8.68;;;19.10;99.90;;;;;;2071784;28;20105;-70
2021/08/19 04:29:29;;;;;;;11.75;9.48;;;19.10;99.90;;;;;;2071387;28;20029;-70
2021/08/19 04:30:30;;;;;;;10.23;9.32;;;19.10;99.90;;;;;;2071638;28;20509;-70
2021/08/19 04:31:31;;;;;;;12.50;9.55;;;19.10;99.90;;;;;;2071187;28;20370;-70
2021/08/19 04:32:32;;;;;;;11.13;9.80;;;19.10;99.90;;;;;;2071487;28;20018;-70
2021/08/19 04:33:32;;;;;;;11.88;10.65;;;19.10;99.90;;;;;;2071270;28;20389;-70
2021/08/19 04:34:33;;;;;;;11.93;10.80;;;19.10;99.90;;;;;;2071622;28;20550;-69
2021/08/19 04:35:33;;;;;;;14.02;11.77;;;19.10;99.90;;;;;;2074950;28;20497;-69
2021/08/19 04:36:34;;;;;;;13.15;11.88;;;19.10;99.90;;;;;;2071685;28;20108;-70
2021/08/19 04:37:35;;;;;;;13.15;11.85;;;19.10;99.90;;;;;;2071357;28;20026;-69
2021/08/19 04:38:35;;;;;;;13.32;12.00;;;19.10;99.90;;;;;;2071605;28;20022;-71
2021/08/19 04:39:36;;;;;;;15.00;12.70;;;19.10;99.90;;;;;;2070525;28;20108;-69
2021/08/19 04:40:36;;;;;;;13.27;11.80;;;19.10;99.90;;;;;;2070776;28;20481;-70
2021/08/19 04:41:37;;;;;;;16.45;12.40;;;19.10;99.90;;;;;;2071320;28;20037;-70
2021/08/19 04:42:38;;;;;;;13.30;11.90;;;19.10;99.90;;;;;;2071606;28;20042;-70
2021/08/19 04:43:39;;;;;;;14.48;13.00;;;19.00;99.90;;;;;;2071110;28;20064;-70
2021/08/19 04:44:39;;;;;;;13.93;12.35;;;19.00;99.90;;;;;;2071662;28;20100;-70
2021/08/19 04:45:40;;;;;;;14.70;13.10;;;19.10;99.90;;;;;;2071281;28;20462;-70
2021/08/19 04:46:40;;;;;;;15.10;13.57;;;19.00;99.90;;;;;;2070750;28;20026;-69
2021/08/19 04:47:41;;;;;;;15.98;13.18;;;19.00;99.90;;;;;;2071164;28;20034;-69
2021/08/19 04:48:41;;;;;;;14.45;12.95;;;19.00;99.90;;;;;;2072601;28;20760;-70
2021/08/19 04:49:42;;;;;;;15.13;13.25;;;19.00;99.90;;;;;;2080416;28;20409;-69
2021/08/19 04:50:43;;;;;;;14.90;13.27;;;19.00;99.90;;;;;;2072054;28;20494;-70
2021/08/19 04:51:45;;;;;;;15.80;14.02;;;19.10;99.90;;;;;;2070768;28;20494;-70
2021/08/19 04:52:46;;;;;;;16.25;14.15;;;19.10;99.90;;;;;;2062436;28;20030;-69
2021/08/19 04:53:46;;;;;;;16.38;14.68;;;19.10;99.90;;;;;;2068944;28;20034;-70
2021/08/19 04:54:47;;;;;;;16.02;14.13;;;19.10;99.90;;;;;;2071293;28;20111;-70
2021/08/19 04:55:47;;;;;;;15.23;13.15;;;19.10;99.90;;;;;;2071376;28;20398;-70
2021/08/19 04:56:48;;;;;;;18.48;15.32;;;19.10;99.90;;;;;;2071311;28;20088;-70
2021/08/19 04:57:48;;;;;;;18.60;15.57;;;19.10;99.90;;;;;;2070822;28;20026;-70
2021/08/19 04:58:49;;;;;;;16.90;15.13;;;19.10;99.90;;;;;;2070693;28;20034;-70
2021/08/19 04:59:49;;;;;;;18.08;15.80;;;19.10;99.90;;;;;;2067436;28;20038;-70
2021/08/19 05:00:50;;;;;;;17.98;15.43;;;19.10;99.90;;;;;;2072939;28;20108;-70
2021/08/19 05:01:51;;;;;;;16.77;14.30;;;19.10;99.90;;;;;;2073160;28;20033;-70
2021/08/19 05:02:51;;;;;;;21.45;15.50;;;19.10;99.90;;;;;;2074882;28;20029;-69
2021/08/19 05:03:52;;;;;;;22.73;17.13;;;19.10;99.90;;;;;;2072948;28;20072;-69
2021/08/19 05:04:52;;;;;;;19.83;16.75;;;19.10;99.90;;;;;;2073049;28;20100;-70
2021/08/19 05:05:53;;;;;;;21.20;16.58;;;19.10;99.90;;;;;;2072765;28;20037;-70
2021/08/19 05:06:53;;;;;;;22.85;17.73;;;19.10;99.90;;;;;;2073115;28;20033;-70
2021/08/19 05:07:54;;;;;;;24.08;17.08;;;19.10;99.90;;;;;;2073111;28;20379;-69
2021/08/19 05:08:56;;;;;;;22.17;17.50;;;19.10;99.90;;;;;;2064954;28;20101;-69
2021/08/19 05:09:57;;;;;;;21.73;17.15;;;19.10;99.90;;;;;;2070707;28;20045;-69